Time;durP1;ratioP1;P1;durP2;ratioP2;P2;SDS_P1;SDS_P2;PMS_P1;PMS_P2;Temp;Humidity;BMP_temperature;BMP_pressure;BME280_temperature;BME280_humidity;BME280_pressure;Samples;Min_cycle;Max_cycle;Signal;HPM_P1;HPM_P2
2023/12/13 00:02:25;;;;;;;42.15;25.70;;;8.20;99.90;;;;;;5075295;28;20044;-49
2023/12/13 00:04:51;;;;;;;39.42;24.23;;;8.20;99.90;;;;;;5090448;28;20044;-48
2023/12/13 00:07:16;;;;;;;39.40;24.77;;;8.10;99.90;;;;;;5089875;28;20035;-46
2023/12/13 00:09:42;;;;;;;41.67;25.25;;;8.00;99.90;;;;;;5082979;28;20484;-48
2023/12/13 00:12:08;;;;;;;35.72;21.73;;;8.10;99.90;;;;;;5080996;28;20059;-45
2023/12/13 00:14:33;;;;;;;34.80;23.92;;;8.10;99.90;;;;;;5082828;28;20166;-46
2023/12/13 00:16:59;;;;;;;31.45;20.70;;;8.10;99.90;;;;;;5090087;28;20522;-45
2023/12/13 00:19:24;;;;;;;42.58;24.25;;;8.00;99.90;;;;;;5088779;28;20047;-46
2023/12/13 00:21:50;;;;;;;46.13;25.80;;;7.90;99.90;;;;;;5092210;28;20538;-45
2023/12/13 00:24:16;;;;;;;36.47;22.95;;;7.90;99.90;;;;;;5092318;28;20135;-45
2023/12/13 00:26:41;;;;;;;43.65;24.92;;;8.00;99.90;;;;;;5091276;28;20635;-45
2023/12/13 00:29:08;;;;;;;45.95;26.40;;;7.90;99.90;;;;;;5092306;28;20048;-46
2023/12/13 00:31:34;;;;;;;43.10;24.92;;;8.00;99.90;;;;;;5088603;28;20060;-45
2023/12/13 00:34:00;;;;;;;40.65;24.80;;;7.90;99.90;;;;;;5091454;28;20043;-45
2023/12/13 00:36:26;;;;;;;39.80;20.58;;;7.90;99.90;;;;;;5094670;28;20043;-47
2023/12/13 00:38:52;;;;;;;28.42;18.10;;;7.90;99.90;;;;;;5091805;28;20131;-46
2023/12/13 00:41:18;;;;;;;27.42;16.75;;;7.90;99.90;;;;;;5090554;28;20198;-46
2023/12/13 00:43:44;;;;;;;30.77;18.15;;;7.90;99.90;;;;;;5090763;28;20507;-46
2023/12/13 00:46:22;;;;;;;31.05;19.17;;;7.80;99.90;;;;;;5091132;28;20097;-45
2023/12/13 00:48:51;;;;;;;29.13;17.27;;;7.90;99.90;;;;;;5090758;28;20389;-46
2023/12/13 00:51:22;;;;;;;22.65;16.48;;;7.90;99.90;;;;;;5090824;28;20055;-46
2023/12/13 00:53:48;;;;;;;22.60;16.02;;;7.90;99.90;;;;;;5089271;28;20040;-48
2023/12/13 00:56:14;;;;;;;28.80;17.65;;;7.90;99.90;;;;;;5091206;28;20051;-46
2023/12/13 00:58:40;;;;;;;30.33;17.45;;;7.90;99.90;;;;;;5091331;28;20063;-47
2023/12/13 01:01:06;;;;;;;22.73;16.08;;;7.90;99.90;;;;;;5089996;28;21492;-46
2023/12/13 01:03:32;;;;;;;25.30;16.83;;;7.90;99.90;;;;;;5091004;28;20083;-45
2023/12/13 01:05:57;;;;;;;33.10;16.90;;;7.90;99.90;;;;;;5090659;28;20040;-46
2023/12/13 01:08:23;;;;;;;27.02;15.63;;;7.90;99.90;;;;;;5091236;28;20075;-45
2023/12/13 01:10:49;;;;;;;19.52;14.43;;;7.80;99.90;;;;;;5091124;28;20081;-45
2023/12/13 01:13:15;;;;;;;21.30;14.20;;;7.80;99.90;;;;;;5091997;28;20048;-46
2023/12/13 01:15:40;;;;;;;19.95;14.57;;;7.90;99.90;;;;;;5089349;28;20047;-47
2023/12/13 01:18:06;;;;;;;28.50;14.73;;;7.90;99.90;;;;;;5080431;28;20778;-47
2023/12/13 01:20:32;;;;;;;26.65;14.40;;;7.80;99.90;;;;;;5085907;28;20046;-46
2023/12/13 01:22:57;;;;;;;23.95;13.70;;;7.90;99.90;;;;;;5089924;28;20361;-45
2023/12/13 01:25:23;;;;;;;20.20;13.25;;;7.80;99.90;;;;;;5089640;28;20039;-45
2023/12/13 01:27:49;;;;;;;20.33;13.70;;;7.80;99.90;;;;;;5089036;28;20522;-45
2023/12/13 01:30:14;;;;;;;19.98;13.43;;;7.70;99.90;;;;;;5088295;28;20040;-46
2023/12/13 01:32:40;;;;;;;20.20;13.25;;;7.80;99.90;;;;;;5091009;28;20378;-46
2023/12/13 01:35:06;;;;;;;20.92;13.18;;;7.80;99.90;;;;;;5089749;28;20429;-45
2023/12/13 01:37:32;;;;;;;19.85;12.90;;;7.80;99.90;;;;;;5089618;28;20044;-45
2023/12/13 01:39:57;;;;;;;19.60;13.60;;;7.80;99.90;;;;;;5092109;28;20043;-45
2023/12/13 01:42:23;;;;;;;20.27;13.13;;;7.70;99.90;;;;;;5087743;28;20106;-44
2023/12/13 01:44:50;;;;;;;18.30;13.00;;;7.80;99.90;;;;;;5090734;28;20039;-44
2023/12/13 01:47:16;;;;;;;20.63;13.90;;;7.80;99.90;;;;;;5090080;28;20158;-45
2023/12/13 01:49:43;;;;;;;20.35;13.73;;;7.90;99.90;;;;;;5090927;28;20036;-44
2023/12/13 01:52:09;;;;;;;20.35;14.05;;;7.90;99.90;;;;;;5088183;28;20405;-45
2023/12/13 01:54:36;;;;;;;25.70;15.45;;;7.80;99.90;;;;;;5093910;28;20032;-46
2023/12/13 01:57:03;;;;;;;19.90;13.63;;;7.90;99.90;;;;;;5094210;28;20086;-45
2023/12/13 01:59:30;;;;;;;22.13;14.65;;;7.80;99.90;;;;;;5095363;28;20062;-45
2023/12/13 02:01:59;;;;;;;19.38;15.73;;;7.90;99.90;;;;;;5094186;28;20043;-45
2023/12/13 02:04:27;;;;;;;21.48;13.85;;;7.90;99.90;;;;;;5087061;28;20421;-45
2023/12/13 02:06:52;;;;;;;23.20;15.10;;;7.80;99.90;;;;;;5092251;28;20047;-45
2023/12/13 02:09:18;;;;;;;23.20;14.73;;;7.80;99.90;;;;;;5093826;28;20044;-45
2023/12/13 02:11:45;;;;;;;22.58;14.75;;;7.90;99.90;;;;;;5093933;28;20036;-45
2023/12/13 02:14:11;;;;;;;21.67;14.75;;;7.90;99.90;;;;;;5091283;28;20052;-46
2023/12/13 02:16:37;;;;;;;25.30;15.25;;;7.90;99.90;;;;;;5082798;28;20553;-45
2023/12/13 02:19:03;;;;;;;21.13;15.13;;;7.90;99.90;;;;;;5094364;28;20040;-45
2023/12/13 02:21:29;;;;;;;19.88;15.05;;;7.90;99.90;;;;;;5094728;28;20047;-45
2023/12/13 02:23:58;;;;;;;23.70;15.13;;;8.00;99.90;;;;;;5093882;28;20077;-45
2023/12/13 02:26:24;;;;;;;21.77;15.20;;;7.90;99.90;;;;;;5090892;28;20079;-46
2023/12/13 02:28:50;;;;;;;24.00;15.45;;;7.90;99.90;;;;;;5093445;28;20076;-45
2023/12/13 02:31:17;;;;;;;23.02;15.52;;;7.90;99.90;;;;;;5085681;28;20120;-46
2023/12/13 02:33:43;;;;;;;38.42;17.48;;;7.80;99.90;;;;;;5087835;28;20075;-46
2023/12/13 02:36:09;;;;;;;23.98;16.35;;;7.80;99.90;;;;;;5090799;28;20397;-46
2023/12/13 02:38:35;;;;;;;25.20;17.10;;;7.80;99.90;;;;;;5091113;28;20032;-46
2023/12/13 02:41:01;;;;;;;28.88;17.52;;;7.80;99.90;;;;;;5091502;28;20116;-48
2023/12/13 02:43:28;;;;;;;26.00;16.88;;;7.70;99.90;;;;;;5094601;28;20040;-46
2023/12/13 02:45:53;;;;;;;23.88;17.05;;;7.80;99.90;;;;;;5090351;28;20044;-45
2023/12/13 02:48:19;;;;;;;26.88;17.08;;;7.70;99.90;;;;;;5088462;28;20043;-46
2023/12/13 02:50:45;;;;;;;26.35;16.63;;;7.70;99.90;;;;;;5092041;28;20035;-47
2023/12/13 02:53:11;;;;;;;25.13;17.75;;;7.80;99.90;;;;;;5093102;28;20119;-46
2023/12/13 02:55:37;;;;;;;25.13;16.58;;;7.70;99.90;;;;;;5093606;28;20142;-44
2023/12/13 02:58:04;;;;;;;27.95;17.67;;;7.70;99.90;;;;;;5093712;28;20461;-46
2023/12/13 03:00:30;;;;;;;23.80;16.73;;;7.80;99.90;;;;;;5090140;28;20441;-45
2023/12/13 03:02:58;;;;;;;27.45;17.65;;;7.80;99.90;;;;;;5093869;28;20288;-45
2023/12/13 03:05:24;;;;;;;25.23;17.52;;;7.70;99.90;;;;;;5091920;28;20040;-46
2023/12/13 03:07:50;;;;;;;32.22;17.42;;;7.80;99.90;;;;;;5093039;28;20504;-47
2023/12/13 03:10:15;;;;;;;26.60;17.48;;;7.90;99.90;;;;;;5087740;28;20040;-47
2023/12/13 03:12:41;;;;;;;23.75;17.08;;;7.90;99.90;;;;;;5093093;28;20427;-46
2023/12/13 03:15:07;;;;;;;24.58;16.73;;;7.80;99.90;;;;;;5093162;28;20074;-45
2023/12/13 03:17:33;;;;;;;27.23;16.58;;;7.90;99.90;;;;;;5092622;28;20036;-46
2023/12/13 03:19:58;;;;;;;29.08;17.38;;;7.90;99.90;;;;;;5093337;28;20032;-45
2023/12/13 03:22:24;;;;;;;28.88;17.42;;;7.90;99.90;;;;;;5092771;28;20489;-47
2023/12/13 03:24:51;;;;;;;25.83;16.63;;;7.90;99.90;;;;;;5093061;28;20036;-47
2023/12/13 03:27:17;;;;;;;30.98;16.73;;;8.00;99.90;;;;;;5093045;28;20036;-46
2023/12/13 03:29:43;;;;;;;26.48;16.95;;;7.90;99.90;;;;;;5093215;28;20586;-47
2023/12/13 03:32:09;;;;;;;22.90;17.42;;;7.90;99.90;;;;;;5092279;28;20051;-48
2023/12/13 03:34:34;;;;;;;31.27;18.02;;;8.10;99.90;;;;;;5090849;28;20044;-45
2023/12/13 03:37:01;;;;;;;31.42;18.63;;;8.00;99.90;;;;;;5090551;28;20044;-46
2023/12/13 03:39:27;;;;;;;28.43;16.93;;;8.00;99.90;;;;;;5086069;28;20154;-46
2023/12/13 03:41:53;;;;;;;25.00;18.15;;;8.10;99.90;;;;;;5071092;28;20290;-45
2023/12/13 03:44:18;;;;;;;28.38;16.92;;;8.00;99.90;;;;;;5087618;28;20547;-45
2023/12/13 03:46:44;;;;;;;29.05;16.30;;;8.00;99.90;;;;;;5085958;28;20127;-46
2023/12/13 03:49:09;;;;;;;27.45;17.83;;;8.00;99.90;;;;;;5092513;28;20036;-48
2023/12/13 03:51:36;;;;;;;23.08;16.90;;;8.00;99.90;;;;;;5090709;28;20139;-44
2023/12/13 03:54:01;;;;;;;28.90;17.88;;;8.10;99.90;;;;;;5091742;28;20032;-47
2023/12/13 03:56:29;;;;;;;27.92;17.35;;;8.00;99.90;;;;;;5090473;28;20044;-46
2023/12/13 03:58:55;;;;;;;;;;;8.10;99.90;;;;;;5090043;28;20074;-45
2023/12/13 04:01:21;;;;;;;22.58;15.32;;;8.00;99.90;;;;;;5084249;28;20346;-49
2023/12/13 04:03:46;;;;;;;26.70;17.10;;;8.10;99.90;;;;;;5084625;28;20070;-46
2023/12/13 04:06:12;;;;;;;30.35;17.67;;;8.10;99.90;;;;;;5087108;28;20097;-48
2023/12/13 04:08:37;;;;;;;24.85;17.60;;;8.10;99.90;;;;;;5085202;28;20497;-44
2023/12/13 04:11:03;;;;;;;29.92;17.27;;;8.00;99.90;;;;;;5083473;28;20094;-45
2023/12/13 04:13:29;;;;;;;23.55;17.77;;;8.10;99.90;;;;;;5090518;28;20040;-46
2023/12/13 04:15:54;;;;;;;24.75;17.35;;;7.90;99.90;;;;;;5087995;28;20043;-45
2023/12/13 04:18:20;;;;;;;31.98;17.75;;;8.00;99.90;;;;;;5088981;28;20044;-46
2023/12/13 04:20:45;;;;;;;28.67;18.00;;;8.00;99.90;;;;;;5092023;28;20054;-44
2023/12/13 04:23:11;;;;;;;28.02;17.60;;;8.00;99.90;;;;;;5086650;28;20090;-46
2023/12/13 04:25:37;;;;;;;29.48;18.05;;;8.00;99.90;;;;;;5089388;28;20040;-46
2023/12/13 04:28:03;;;;;;;30.27;17.90;;;8.00;99.90;;;;;;5088324;28;20036;-48
2023/12/13 04:30:29;;;;;;;29.95;17.48;;;8.00;99.90;;;;;;5089186;28;20058;-45
2023/12/13 04:32:55;;;;;;;26.55;17.65;;;8.00;99.90;;;;;;5088729;28;20047;-49
2023/12/13 04:35:20;;;;;;;30.38;18.10;;;7.90;99.90;;;;;;5071356;28;20036;-47
2023/12/13 04:37:46;;;;;;;28.92;17.98;;;7.90;99.90;;;;;;5090036;28;20040;-45
2023/12/13 04:40:12;;;;;;;26.95;19.00;;;7.90;99.90;;;;;;5089572;28;20079;-45
2023/12/13 04:42:37;;;;;;;35.42;18.60;;;7.90;99.90;;;;;;5087753;28;20036;-47
2023/12/13 04:45:04;;;;;;;29.63;17.77;;;8.00;99.90;;;;;;5088245;28;20039;-48
2023/12/13 04:47:30;;;;;;;26.37;18.03;;;7.90;99.90;;;;;;5084573;28;20044;-47
2023/12/13 04:49:56;;;;;;;25.15;17.92;;;7.80;99.90;;;;;;5087224;28;20100;-45
2023/12/13 04:52:21;;;;;;;27.42;17.50;;;7.80;99.90;;;;;;5090979;28;20036;-47
2023/12/13 04:54:47;;;;;;;26.73;18.10;;;7.90;99.90;;;;;;5087965;28;20102;-45
2023/12/13 04:57:12;;;;;;;27.30;18.08;;;7.90;99.90;;;;;;5090880;28;20072;-45
2023/12/13 04:59:38;;;;;;;37.30;18.90;;;7.80;99.90;;;;;;5089285;28;20038;-46
2023/12/13 05:02:04;;;;;;;30.83;19.10;;;7.90;99.90;;;;;;5089217;28;20086;-46
2023/12/13 05:04:29;;;;;;;24.55;17.65;;;7.90;99.90;;;;;;5086535;28;20398;-48
2023/12/13 05:06:55;;;;;;;32.38;18.38;;;7.80;99.90;;;;;;5090931;28;20048;-48
2023/12/13 05:09:21;;;;;;;30.77;17.55;;;7.80;99.90;;;;;;5084972;28;20032;-47
2023/12/13 05:11:47;;;;;;;32.60;19.65;;;7.80;99.90;;;;;;5083329;28;20040;-46
2023/12/13 05:14:12;;;;;;;39.08;19.60;;;7.80;99.90;;;;;;5083255;28;20069;-48
2023/12/13 05:16:38;;;;;;;28.58;17.70;;;7.90;99.90;;;;;;5081842;28;20040;-47
2023/12/13 05:19:03;;;;;;;30.38;18.58;;;7.90;99.90;;;;;;5083671;28;20036;-45
2023/12/13 05:21:29;;;;;;;31.02;18.88;;;7.80;99.90;;;;;;5067212;28;20473;-46
2023/12/13 05:23:55;;;;;;;27.55;18.48;;;7.80;99.90;;;;;;5089163;28;20123;-46
2023/12/13 05:26:20;;;;;;;27.83;17.90;;;7.90;99.90;;;;;;5089812;28;20126;-47
2023/12/13 05:28:46;;;;;;;26.08;18.38;;;7.90;99.90;;;;;;5086739;28;20123;-49
2023/12/13 05:31:19;;;;;;;27.30;17.50;;;7.80;99.90;;;;;;5086188;28;20070;-46
2023/12/13 05:33:45;;;;;;;30.80;18.40;;;7.80;99.90;;;;;;5084022;28;20063;-48
2023/12/13 05:36:11;;;;;;;27.13;17.75;;;7.90;99.90;;;;;;5087153;28;20490;-48
2023/12/13 05:38:36;;;;;;;31.77;19.15;;;7.90;99.90;;;;;;5087848;28;20553;-46
2023/12/13 05:41:02;;;;;;;28.20;18.45;;;7.90;99.90;;;;;;5091052;28;20043;-45
2023/12/13 05:43:28;;;;;;;29.00;18.00;;;7.80;99.90;;;;;;5068745;28;20393;-46
2023/12/13 05:45:54;;;;;;;29.23;17.80;;;7.90;99.90;;;;;;5086308;28;20539;-47
2023/12/13 05:48:20;;;;;;;33.17;18.65;;;7.80;99.90;;;;;;5085894;28;20044;-46
2023/12/13 05:50:46;;;;;;;25.23;17.50;;;7.90;99.90;;;;;;5064602;28;20550;-46
2023/12/13 05:53:11;;;;;;;32.40;18.25;;;7.90;99.90;;;;;;5087401;28;20043;-47
2023/12/13 05:55:37;;;;;;;29.77;18.83;;;7.90;99.90;;;;;;5093203;28;20354;-47
2023/12/13 05:58:02;;;;;;;28.00;18.38;;;7.90;99.90;;;;;;5073248;28;20166;-45
2023/12/13 06:00:30;;;;;;;23.75;17.30;;;7.90;99.90;;;;;;5086278;28;20051;-49
2023/12/13 06:02:56;;;;;;;25.48;16.85;;;7.90;99.90;;;;;;5084366;28;20081;-48
2023/12/13 06:05:21;;;;;;;34.80;17.95;;;7.80;99.90;;;;;;5084694;28;20157;-47
2023/12/13 06:07:47;;;;;;;37.40;17.60;;;7.90;99.90;;;;;;5087985;28;20160;-48
2023/12/13 06:10:12;;;;;;;25.65;17.45;;;7.80;99.90;;;;;;5087528;28;20120;-46
2023/12/13 06:12:38;;;;;;;24.48;16.85;;;7.90;99.90;;;;;;5087870;28;20040;-46
2023/12/13 06:15:04;;;;;;;24.30;16.73;;;7.90;99.90;;;;;;5084601;28;20515;-45
2023/12/13 06:17:30;;;;;;;23.40;16.73;;;7.90;99.90;;;;;;5082078;28;20036;-45
2023/12/13 06:19:55;;;;;;;27.38;16.85;;;7.80;99.90;;;;;;5081078;28;20046;-48
2023/12/13 06:22:21;;;;;;;26.73;16.63;;;7.90;99.90;;;;;;5080772;28;20173;-47
2023/12/13 06:24:46;;;;;;;29.05;16.75;;;7.90;99.90;;;;;;5081716;28;20130;-47
2023/12/13 06:27:12;;;;;;;26.85;16.73;;;7.90;99.90;;;;;;5081279;28;20044;-47
2023/12/13 06:29:38;;;;;;;22.73;15.35;;;7.80;99.90;;;;;;5081213;28;20557;-45
2023/12/13 06:32:04;;;;;;;25.95;16.90;;;7.90;99.90;;;;;;5080619;28;20048;-45
2023/12/13 06:34:30;;;;;;;26.52;15.82;;;7.80;99.90;;;;;;5081405;28;20405;-46
2023/12/13 06:36:56;;;;;;;25.70;16.10;;;7.90;99.90;;;;;;5063120;28;20047;-47
2023/12/13 06:39:21;;;;;;;26.10;15.80;;;7.80;99.90;;;;;;5080133;28;20117;-47
2023/12/13 06:41:47;;;;;;;25.88;17.10;;;7.90;99.90;;;;;;5083854;28;20036;-46
2023/12/13 06:44:13;;;;;;;30.88;17.30;;;7.90;99.90;;;;;;5086476;28;20492;-45
2023/12/13 06:46:38;;;;;;;28.20;16.98;;;7.80;99.90;;;;;;5085799;28;20567;-47
2023/12/13 06:49:04;;;;;;;35.92;16.48;;;7.90;99.90;;;;;;5087400;28;20043;-45
2023/12/13 06:51:30;;;;;;;26.67;16.52;;;7.90;99.90;;;;;;5087164;28;20134;-47
2023/12/13 06:53:55;;;;;;;25.42;16.10;;;7.90;99.90;;;;;;5091653;28;20062;-45
2023/12/13 06:56:21;;;;;;;28.30;16.42;;;7.90;99.90;;;;;;5092861;28;20090;-47
2023/12/13 06:58:49;;;;;;;31.85;16.85;;;7.90;99.90;;;;;;5096663;28;20074;-46
2023/12/13 07:01:15;;;;;;;30.92;17.38;;;7.90;99.90;;;;;;5089083;28;20032;-46
2023/12/13 07:03:41;;;;;;;24.35;16.08;;;7.90;99.90;;;;;;5090382;28;20400;-47
2023/12/13 07:06:07;;;;;;;30.50;16.13;;;7.90;99.90;;;;;;5076239;28;20494;-46
2023/12/13 07:08:34;;;;;;;23.20;16.33;;;7.90;99.90;;;;;;5087849;28;20068;-45
2023/12/13 07:11:03;;;;;;;31.10;16.83;;;7.90;99.90;;;;;;5071650;28;20493;-47
2023/12/13 07:13:29;;;;;;;28.27;17.10;;;7.90;99.90;;;;;;5088756;28;20435;-47
2023/12/13 07:15:55;;;;;;;38.53;17.90;;;7.90;99.90;;;;;;5084213;28;20119;-46
2023/12/13 07:18:21;;;;;;;32.35;17.30;;;7.90;99.90;;;;;;5087586;28;20040;-46
2023/12/13 07:20:47;;;;;;;26.70;17.83;;;7.90;99.90;;;;;;5091451;28;20127;-45
2023/12/13 07:23:12;;;;;;;31.73;18.05;;;7.90;99.90;;;;;;5089872;28;20147;-45
2023/12/13 07:25:39;;;;;;;28.25;17.00;;;7.80;99.90;;;;;;5089245;28;20040;-45
2023/12/13 07:28:04;;;;;;;31.27;18.45;;;7.90;99.90;;;;;;5085406;28;20056;-46
2023/12/13 07:30:30;;;;;;;26.67;16.90;;;7.90;99.90;;;;;;5084513;28;20459;-45
2023/12/13 07:32:55;;;;;;;30.42;18.20;;;7.90;99.90;;;;;;5085176;28;20072;-46
2023/12/13 07:35:22;;;;;;;30.50;17.05;;;8.00;99.90;;;;;;5091904;28;20039;-45
2023/12/13 07:37:48;;;;;;;31.88;17.85;;;8.00;99.90;;;;;;5087619;28;20569;-45
2023/12/13 07:40:14;;;;;;;30.55;17.23;;;7.90;99.90;;;;;;5086771;28;20055;-46
2023/12/13 07:42:41;;;;;;;31.08;16.02;;;7.90;99.90;;;;;;5089093;28;20036;-45
2023/12/13 07:45:07;;;;;;;29.83;16.25;;;7.90;99.90;;;;;;5088143;28;20122;-46
2023/12/13 07:47:33;;;;;;;27.80;16.60;;;8.00;99.90;;;;;;5092205;28;20058;-46
2023/12/13 07:49:59;;;;;;;28.98;16.17;;;7.90;99.90;;;;;;5087818;28;20119;-46
2023/12/13 07:52:24;;;;;;;27.65;17.15;;;7.90;99.90;;;;;;5083848;28;20441;-46
2023/12/13 07:54:50;;;;;;;26.30;16.25;;;7.90;99.90;;;;;;5086311;28;20081;-46
2023/12/13 07:57:16;;;;;;;25.75;15.73;;;7.90;99.90;;;;;;5092637;28;20044;-47
2023/12/13 07:59:41;;;;;;;24.00;15.13;;;7.90;99.90;;;;;;5089592;28;20040;-48
2023/12/13 08:02:07;;;;;;;27.95;15.48;;;7.90;99.90;;;;;;5089272;28;20044;-45
2023/12/13 08:04:32;;;;;;;29.05;16.05;;;7.90;99.90;;;;;;5090670;28;20032;-45
2023/12/13 08:06:58;;;;;;;23.60;15.85;;;7.90;99.90;;;;;;5088638;28;20044;-44
2023/12/13 08:09:23;;;;;;;25.77;15.82;;;7.90;99.90;;;;;;5087662;28;20075;-45
2023/12/13 08:11:49;;;;;;;24.92;16.48;;;8.00;99.90;;;;;;5087565;28;20070;-46
2023/12/13 08:14:15;;;;;;;27.73;15.90;;;7.90;99.90;;;;;;5090986;28;20043;-46
2023/12/13 08:16:41;;;;;;;25.30;16.02;;;8.00;99.90;;;;;;5088773;28;20126;-45
2023/12/13 08:19:07;;;;;;;27.05;16.83;;;8.00;99.90;;;;;;5085162;28;20111;-47
2023/12/13 08:21:33;;;;;;;29.58;16.55;;;7.90;99.90;;;;;;5085760;28;20520;-48
2023/12/13 08:23:58;;;;;;;30.30;17.33;;;7.90;99.90;;;;;;5084080;28;20036;-46
2023/12/13 08:26:27;;;;;;;23.27;17.20;;;8.00;99.90;;;;;;5087854;28;20059;-48
2023/12/13 08:28:53;;;;;;;26.25;16.75;;;8.00;99.90;;;;;;5090896;28;21961;-48
2023/12/13 08:31:18;;;;;;;33.17;16.45;;;8.00;99.90;;;;;;5090287;28;20044;-46
2023/12/13 08:33:44;;;;;;;24.92;16.20;;;8.00;99.90;;;;;;5085829;28;20047;-47
2023/12/13 08:36:13;;;;;;;26.70;16.40;;;8.00;99.90;;;;;;5086900;28;20085;-48
2023/12/13 08:38:40;;;;;;;24.85;17.08;;;8.10;99.90;;;;;;5086167;28;20140;-46
2023/12/13 08:41:07;;;;;;;26.20;16.08;;;8.10;99.90;;;;;;5083188;28;20044;-46
2023/12/13 08:43:33;;;;;;;21.70;15.53;;;8.10;99.90;;;;;;5085912;28;20036;-46
2023/12/13 08:45:58;;;;;;;21.08;15.07;;;8.00;99.90;;;;;;5091786;28;20044;-47
2023/12/13 08:48:25;;;;;;;23.02;14.60;;;;;;;;;;5090228;28;20119;-45
2023/12/13 08:50:51;;;;;;;26.80;16.30;;;8.10;99.90;;;;;;5087969;28;20123;-47
2023/12/13 08:53:17;;;;;;;25.55;15.32;;;8.10;99.90;;;;;;5085100;28;20196;-46
2023/12/13 08:55:42;;;;;;;23.05;15.68;;;8.10;99.90;;;;;;5085733;28;20040;-46
2023/12/13 08:58:08;;;;;;;24.50;16.05;;;8.10;99.90;;;;;;5091156;28;20036;-48
2023/12/13 09:00:33;;;;;;;23.98;15.52;;;8.20;99.90;;;;;;5090389;28;20036;-46
2023/12/13 09:02:59;;;;;;;24.67;15.90;;;8.10;99.90;;;;;;5090832;28;20532;-46
2023/12/13 09:05:25;;;;;;;18.50;15.43;;;8.20;99.90;;;;;;5089981;28;20047;-46
2023/12/13 09:07:50;;;;;;;25.02;14.75;;;8.20;99.90;;;;;;5088965;28;20055;-46
2023/12/13 09:10:16;;;;;;;26.45;15.20;;;8.20;99.90;;;;;;5088247;28;20067;-46
2023/12/13 09:12:42;;;;;;;22.10;15.15;;;8.20;99.90;;;;;;5092008;28;20036;-48
2023/12/13 09:15:08;;;;;;;23.98;14.98;;;8.20;99.90;;;;;;5088274;28;20482;-46
2023/12/13 09:17:37;;;;;;;23.48;15.15;;;8.20;99.90;;;;;;5084997;28;20105;-45
2023/12/13 09:20:02;;;;;;;25.27;15.65;;;8.20;99.90;;;;;;5088405;28;20108;-46
2023/12/13 09:22:30;;;;;;;21.60;15.20;;;8.30;99.90;;;;;;5090303;28;20546;-46
2023/12/13 09:24:55;;;;;;;20.83;15.63;;;8.20;99.90;;;;;;5089749;28;20408;-45
2023/12/13 09:27:23;;;;;;;22.48;15.40;;;8.30;99.90;;;;;;5089674;28;20044;-45
2023/12/13 09:29:48;;;;;;;23.63;15.33;;;8.30;99.90;;;;;;5088985;28;20044;-45
2023/12/13 09:32:14;;;;;;;23.52;14.98;;;8.30;99.90;;;;;;5091181;28;20052;-47
2023/12/13 09:34:39;;;;;;;22.05;15.15;;;8.30;99.90;;;;;;5090320;28;20101;-45
2023/12/13 09:37:06;;;;;;;21.98;15.00;;;8.30;99.90;;;;;;5091038;28;20499;-46
2023/12/13 09:39:31;;;;;;;24.25;15.45;;;8.40;99.90;;;;;;5098104;28;20122;-45
2023/12/13 09:42:02;;;;;;;22.50;15.10;;;8.30;99.90;;;;;;5093137;28;20131;-46
2023/12/13 09:44:29;;;;;;;26.75;15.73;;;8.40;99.90;;;;;;5084841;28;20444;-46
2023/12/13 09:46:58;;;;;;;22.17;15.82;;;8.40;99.90;;;;;;5089311;28;20048;-46
2023/12/13 09:49:26;;;;;;;24.23;15.20;;;8.40;99.90;;;;;;5091120;28;20035;-49
2023/12/13 09:51:54;;;;;;;22.27;15.48;;;8.40;99.90;;;;;;5091659;28;20036;-46
2023/12/13 09:54:20;;;;;;;22.15;15.23;;;8.50;99.90;;;;;;5088941;28;20055;-48
2023/12/13 09:56:45;;;;;;;19.13;16.05;;;8.50;99.90;;;;;;5085236;28;20079;-46
2023/12/13 09:59:11;;;;;;;24.67;16.35;;;8.50;99.90;;;;;;5089531;28;20413;-46
2023/12/13 10:01:37;;;;;;;26.98;16.70;;;8.50;99.90;;;;;;5089484;28;20039;-48
2023/12/13 10:04:03;;;;;;;21.38;16.58;;;8.50;99.90;;;;;;5090399;28;20390;-46
2023/12/13 10:06:29;;;;;;;20.13;15.60;;;8.50;99.90;;;;;;5090664;28;20056;-48
2023/12/13 10:09:01;;;;;;;26.20;17.30;;;8.50;99.90;;;;;;5090799;28;20037;-49
2023/12/13 10:11:27;;;;;;;21.88;16.85;;;8.50;99.90;;;;;;5088079;28;20439;-46
2023/12/13 10:13:52;;;;;;;25.65;16.33;;;8.60;99.90;;;;;;5089320;28;20115;-49
2023/12/13 10:16:18;;;;;;;24.83;16.83;;;8.60;99.90;;;;;;5092828;28;20044;-46
2023/12/13 10:18:46;;;;;;;25.63;17.33;;;8.70;99.90;;;;;;5092341;28;20357;-47
2023/12/13 10:21:12;;;;;;;22.27;16.73;;;8.70;99.90;;;;;;5091731;28;20044;-45
2023/12/13 10:23:41;;;;;;;26.30;17.40;;;8.70;99.90;;;;;;5092480;28;20401;-46
2023/12/13 10:26:09;;;;;;;23.67;17.48;;;8.70;99.90;;;;;;5092639;28;20032;-46
2023/12/13 10:28:35;;;;;;;26.00;16.30;;;8.80;99.90;;;;;;5092858;28;20040;-46
2023/12/13 10:31:02;;;;;;;27.40;17.90;;;8.70;99.90;;;;;;5092524;28;20105;-46
2023/12/13 10:33:28;;;;;;;23.48;17.42;;;8.80;99.90;;;;;;5087464;28;20443;-46
2023/12/13 10:35:56;;;;;;;24.55;17.20;;;8.80;99.90;;;;;;5092375;28;20036;-49
2023/12/13 10:38:25;;;;;;;23.70;17.38;;;8.80;99.90;;;;;;5088688;28;20080;-47
2023/12/13 10:40:51;;;;;;;23.40;17.88;;;8.80;99.90;;;;;;5072017;28;20444;-46
2023/12/13 10:43:19;;;;;;;24.77;18.52;;;8.80;99.90;;;;;;5091104;28;20064;-48
2023/12/13 10:45:53;;;;;;;;;;;8.80;99.90;;;;;;5093244;28;20780;-50
2023/12/13 10:48:27;;;;;;;25.90;17.90;;;8.80;99.90;;;;;;5093130;28;20202;-47
2023/12/13 10:50:55;;;;;;;23.52;17.58;;;8.70;99.90;;;;;;5092420;28;20414;-46
2023/12/13 10:53:21;;;;;;;;;;;8.80;99.90;;;;;;5090392;28;20484;-48
2023/12/13 10:55:47;;;;;;;26.95;17.60;;;8.80;99.90;;;;;;5089731;28;19974;-46
2023/12/13 10:58:15;;;;;;;26.20;17.45;;;8.80;99.90;;;;;;5089863;28;20386;-46
2023/12/13 11:00:42;;;;;;;26.85;17.80;;;8.90;99.90;;;;;;5089614;28;20032;-46
2023/12/13 11:03:35;;;;;;;29.88;18.42;;;8.80;99.90;;;;;;5092427;28;20036;-47
2023/12/13 11:06:11;;;;;;;22.73;17.02;;;8.90;99.90;;;;;;5073253;28;20035;-46
2023/12/13 11:08:38;;;;;;;22.60;17.05;;;8.90;99.90;;;;;;5090691;28;20059;-45
2023/12/13 11:11:06;;;;;;;25.55;18.80;;;8.90;99.90;;;;;;5095256;28;20042;-46
2023/12/13 11:13:36;;;;;;;;;;;8.90;99.90;;;;;;5092314;28;20037;-47
2023/12/13 11:16:16;;;;;;;22.02;18.35;;;8.90;99.90;;;;;;5092618;28;20578;-46
2023/12/13 11:18:41;;;;;;;26.85;18.05;;;8.90;99.90;;;;;;5091176;28;20040;-48
2023/12/13 11:21:07;;;;;;;26.20;18.42;;;8.90;99.90;;;;;;5091577;28;20105;-47
2023/12/13 11:23:33;;;;;;;26.35;18.55;;;9.00;99.90;;;;;;5091563;28;20036;-46
2023/12/13 11:25:58;;;;;;;26.98;19.75;;;9.00;99.90;;;;;;5091404;28;20500;-46
2023/12/13 11:28:25;;;;;;;27.23;19.42;;;9.10;99.90;;;;;;5089040;28;20394;-46
2023/12/13 11:30:54;;;;;;;28.98;19.65;;;9.10;99.90;;;;;;5091093;28;20051;-46
2023/12/13 11:33:21;;;;;;;28.50;20.27;;;9.20;99.90;;;;;;5092315;28;20071;-46
2023/12/13 11:35:49;;;;;;;28.15;19.95;;;9.30;99.90;;;;;;5092345;28;20036;-46
2023/12/13 11:38:15;;;;;;;30.85;20.27;;;9.40;99.90;;;;;;5091576;28;20039;-46
2023/12/13 11:40:41;;;;;;;28.30;19.73;;;9.50;99.90;;;;;;5092339;28;20043;-46
2023/12/13 11:43:07;;;;;;;23.58;18.55;;;9.40;99.90;;;;;;5090969;28;20039;-48
2023/12/13 11:45:32;;;;;;;21.90;18.80;;;9.40;99.90;;;;;;5092401;28;20503;-48
2023/12/13 11:48:00;;;;;;;26.33;18.90;;;9.40;99.90;;;;;;5090853;28;20052;-45
2023/12/13 11:50:26;;;;;;;;;;;9.50;99.90;;;;;;5091988;28;20177;-46
2023/12/13 11:52:52;;;;;;;22.15;17.45;;;9.50;99.90;;;;;;5086185;28;20003;-46
2023/12/13 11:55:19;;;;;;;25.55;19.23;;;9.50;99.90;;;;;;5091624;28;20131;-45
2023/12/13 11:57:46;;;;;;;25.92;18.83;;;9.50;99.90;;;;;;5090967;28;20043;-46
2023/12/13 12:00:12;;;;;;;22.40;17.67;;;9.50;99.90;;;;;;5088855;28;20477;-45
2023/12/13 12:02:38;;;;;;;24.23;17.98;;;9.50;99.90;;;;;;5091276;28;20032;-47
2023/12/13 12:05:06;;;;;;;23.35;18.30;;;9.60;99.90;;;;;;5092259;28;20451;-45
2023/12/13 12:07:32;;;;;;;24.30;18.27;;;9.60;99.90;;;;;;5087866;28;20555;-46
2023/12/13 12:09:59;;;;;;;24.40;19.20;;;9.50;99.90;;;;;;5074439;28;20075;-47
2023/12/13 12:12:28;;;;;;;23.85;18.55;;;9.60;99.90;;;;;;5092924;28;20504;-46
2023/12/13 12:14:54;;;;;;;23.10;17.75;;;9.60;99.90;;;;;;5091306;28;20044;-49
2023/12/13 12:17:19;;;;;;;22.88;17.52;;;9.60;99.90;;;;;;5092695;28;20187;-48
2023/12/13 12:19:48;;;;;;;23.77;18.08;;;9.60;99.90;;;;;;5090351;28;20035;-46
2023/12/13 12:22:15;;;;;;;20.70;16.80;;;9.60;99.90;;;;;;5088685;28;20036;-46
2023/12/13 12:24:41;;;;;;;21.17;17.77;;;9.60;99.90;;;;;;5089324;28;20131;-46
2023/12/13 12:27:09;;;;;;;21.00;17.55;;;9.70;99.90;;;;;;5088092;28;20573;-46
2023/12/13 12:29:34;;;;;;;24.92;18.48;;;9.70;99.90;;;;;;5090173;28;20127;-47
2023/12/13 12:32:00;;;;;;;24.13;18.35;;;9.70;99.90;;;;;;5090889;28;20128;-44
2023/12/13 12:34:25;;;;;;;22.80;18.33;;;9.70;99.90;;;;;;5090855;28;20066;-44